首页
METAR-TAF:

METAR-TAF

机场 :

鹿特丹海牙机场

鹿特丹, 荷兰

纬度: 51-57N, 经度: 004-27E, 海拔: -5米

当前天气观测

该预报发布于30分钟前的02:55 UTC
风速6节,风向东北
温度 12°C
湿度 82%
气压 1022 hPa
能见度10公里或以上

METAR: EHRD 010255Z AUTO 05006KT 9999 NSC 12/09 Q1022 NOSIG

时间: 05:25 (03:25 UTC)

预报

该预报发布于4小时和13分钟前的23:12 UTC
预报有效从01日的 00点(UTC)到 02日的 06点(UTC)
风速7节,风向东转东北
能见度10公里或以上
1500米以下无云,无积雨云
成为
从 01日的 08点(UTC)到 01日的 11点(UTC)
风速12节,风向东北
成为
从 01日的 15点(UTC)到 01日的 18点(UTC)
风速10节,风向
成为
从 01日的 18点(UTC)到 01日的 21点(UTC)
风速5节,风向东北

TAF: EHRD 312312Z 0100/0206 06007KT CAVOK BECMG 0108/0111 05012KT BECMG 0115/0118 01010KT BECMG 0118/0121 04005KT

超过4000个机场的气象观测和天气预报(METAR&TAF报告)。

可查询的气象台以黄色和红色小点在地图上表示。

将鼠标移到小点上方,可查看气象台名称。

然后点击查看天气观测和预报。

如需切换地图:点击带黑十字的绿色按钮放大地图;点击带横线的绿色按钮缩小地图;或者点击绿色箭头查看邻近地区的地图。


METAR-TAF: